sensor_id;sensor_type;location;lat;lon;timestamp;P1;durP1;ratioP1;P2;durP2;ratioP2
9388;SDS011;4734;52.778;6.798;2023-02-23T00:00:00;40.80;;;28.43;;
9388;SDS011;4734;52.778;6.798;2023-02-23T00:02:57;41.57;;;29.17;;
9388;SDS011;4734;52.778;6.798;2023-02-23T00:05:43;39.83;;;28.43;;
9388;SDS011;4734;52.778;6.798;2023-02-23T00:08:29;38.37;;;27.63;;
9388;SDS011;4734;52.778;6.798;2023-02-23T00:11:19;38.47;;;27.00;;
9388;SDS011;4734;52.778;6.798;2023-02-23T00:14:06;38.67;;;27.60;;
9388;SDS011;4734;52.778;6.798;2023-02-23T00:16:52;38.80;;;28.40;;
9388;SDS011;4734;52.778;6.798;2023-02-23T00:19:38;35.53;;;26.23;;
9388;SDS011;4734;52.778;6.798;2023-02-23T00:22:26;38.03;;;25.88;;
9388;SDS011;4734;52.778;6.798;2023-02-23T00:25:11;37.17;;;26.05;;
9388;SDS011;4734;52.778;6.798;2023-02-23T00:27:57;33.65;;;26.13;;
9388;SDS011;4734;52.778;6.798;2023-02-23T00:30:44;39.08;;;25.55;;
9388;SDS011;4734;52.778;6.798;2023-02-23T00:33:30;35.90;;;27.13;;
9388;SDS011;4734;52.778;6.798;2023-02-23T00:36:17;37.80;;;27.95;;
9388;SDS011;4734;52.778;6.798;2023-02-23T00:39:03;38.30;;;28.02;;
9388;SDS011;4734;52.778;6.798;2023-02-23T00:41:59;38.38;;;27.35;;
9388;SDS011;4734;52.778;6.798;2023-02-23T00:44:46;37.22;;;28.17;;
9388;SDS011;4734;52.778;6.798;2023-02-23T00:47:33;40.63;;;29.33;;
9388;SDS011;4734;52.778;6.798;2023-02-23T00:50:19;39.33;;;28.58;;
9388;SDS011;4734;52.778;6.798;2023-02-23T00:53:05;41.25;;;30.00;;
9388;SDS011;4734;52.778;6.798;2023-02-23T00:55:51;43.65;;;30.60;;
9388;SDS011;4734;52.778;6.798;2023-02-23T00:58:37;43.30;;;29.43;;
9388;SDS011;4734;52.778;6.798;2023-02-23T01:01:23;45.50;;;30.93;;
9388;SDS011;4734;52.778;6.798;2023-02-23T01:04:11;43.80;;;30.43;;
9388;SDS011;4734;52.778;6.798;2023-02-23T01:06:56;44.57;;;30.87;;
9388;SDS011;4734;52.778;6.798;2023-02-23T01:09:42;48.13;;;31.40;;
9388;SDS011;4734;52.778;6.798;2023-02-23T01:12:28;43.73;;;31.93;;
9388;SDS011;4734;52.778;6.798;2023-02-23T01:15:16;47.53;;;31.17;;
9388;SDS011;4734;52.778;6.798;2023-02-23T01:18:02;46.13;;;31.63;;
9388;SDS011;4734;52.778;6.798;2023-02-23T01:20:49;43.87;;;30.40;;
9388;SDS011;4734;52.778;6.798;2023-02-23T01:23:35;44.20;;;30.30;;
9388;SDS011;4734;52.778;6.798;2023-02-23T01:26:21;47.27;;;30.97;;
9388;SDS011;4734;52.778;6.798;2023-02-23T01:29:09;45.07;;;31.73;;
9388;SDS011;4734;52.778;6.798;2023-02-23T01:31:54;40.83;;;29.23;;
9388;SDS011;4734;52.778;6.798;2023-02-23T01:34:40;41.23;;;30.20;;
9388;SDS011;4734;52.778;6.798;2023-02-23T01:37:27;41.07;;;30.20;;
9388;SDS011;4734;52.778;6.798;2023-02-23T01:40:14;46.43;;;33.07;;
9388;SDS011;4734;52.778;6.798;2023-02-23T01:43:12;43.40;;;30.13;;
9388;SDS011;4734;52.778;6.798;2023-02-23T01:45:58;44.77;;;31.30;;
9388;SDS011;4734;52.778;6.798;2023-02-23T01:48:44;45.97;;;30.97;;
9388;SDS011;4734;52.778;6.798;2023-02-23T01:51:32;44.83;;;32.27;;
9388;SDS011;4734;52.778;6.798;2023-02-23T01:54:20;47.20;;;32.53;;
9388;SDS011;4734;52.778;6.798;2023-02-23T01:57:06;45.07;;;31.83;;
9388;SDS011;4734;52.778;6.798;2023-02-23T01:59:56;47.37;;;32.47;;
9388;SDS011;4734;52.778;6.798;2023-02-23T02:02:42;45.70;;;31.90;;
9388;SDS011;4734;52.778;6.798;2023-02-23T02:05:28;43.70;;;31.27;;
9388;SDS011;4734;52.778;6.798;2023-02-23T02:08:14;44.57;;;31.27;;
9388;SDS011;4734;52.778;6.798;2023-02-23T02:11:03;47.77;;;32.50;;
9388;SDS011;4734;52.778;6.798;2023-02-23T02:14:08;45.83;;;32.07;;
9388;SDS011;4734;52.778;6.798;2023-02-23T02:17:02;47.67;;;31.97;;
9388;SDS011;4734;52.778;6.798;2023-02-23T02:19:58;49.97;;;33.63;;
9388;SDS011;4734;52.778;6.798;2023-02-23T02:23:13;48.23;;;33.67;;
9388;SDS011;4734;52.778;6.798;2023-02-23T02:26:10;49.87;;;34.07;;
9388;SDS011;4734;52.778;6.798;2023-02-23T02:29:14;47.90;;;33.17;;
9388;SDS011;4734;52.778;6.798;2023-02-23T02:32:20;47.90;;;33.70;;
9388;SDS011;4734;52.778;6.798;2023-02-23T02:38:26;51.50;;;34.97;;
9388;SDS011;4734;52.778;6.798;2023-02-23T02:41:14;51.03;;;34.87;;
9388;SDS011;4734;52.778;6.798;2023-02-23T02:44:05;54.47;;;33.07;;
9388;SDS011;4734;52.778;6.798;2023-02-23T02:46:53;50.80;;;33.80;;
9388;SDS011;4734;52.778;6.798;2023-02-23T02:49:41;53.10;;;35.33;;
9388;SDS011;4734;52.778;6.798;2023-02-23T02:52:30;49.03;;;32.93;;
9388;SDS011;4734;52.778;6.798;2023-02-23T02:55:21;50.73;;;34.37;;
9388;SDS011;4734;52.778;6.798;2023-02-23T02:58:08;53.43;;;33.90;;
9388;SDS011;4734;52.778;6.798;2023-02-23T03:00:54;48.40;;;33.60;;
9388;SDS011;4734;52.778;6.798;2023-02-23T03:03:58;57.47;;;34.27;;
9388;SDS011;4734;52.778;6.798;2023-02-23T03:07:04;50.53;;;33.07;;
9388;SDS011;4734;52.778;6.798;2023-02-23T03:10:11;46.80;;;33.03;;
9388;SDS011;4734;52.778;6.798;2023-02-23T03:13:18;53.07;;;34.40;;
9388;SDS011;4734;52.778;6.798;2023-02-23T03:16:27;51.67;;;33.63;;
9388;SDS011;4734;52.778;6.798;2023-02-23T03:19:34;50.43;;;33.47;;
9388;SDS011;4734;52.778;6.798;2023-02-23T03:22:41;53.53;;;33.57;;
9388;SDS011;4734;52.778;6.798;2023-02-23T03:25:48;50.57;;;33.50;;
9388;SDS011;4734;52.778;6.798;2023-02-23T03:28:57;49.30;;;32.00;;
9388;SDS011;4734;52.778;6.798;2023-02-23T03:32:02;51.77;;;33.97;;
9388;SDS011;4734;52.778;6.798;2023-02-23T03:35:09;45.10;;;31.33;;
9388;SDS011;4734;52.778;6.798;2023-02-23T03:38:18;51.93;;;32.90;;
9388;SDS011;4734;52.778;6.798;2023-02-23T03:41:23;46.67;;;31.13;;
9388;SDS011;4734;52.778;6.798;2023-02-23T03:44:31;48.83;;;32.90;;
9388;SDS011;4734;52.778;6.798;2023-02-23T03:47:36;53.77;;;35.17;;
9388;SDS011;4734;52.778;6.798;2023-02-23T03:50:42;47.20;;;32.03;;
9388;SDS011;4734;52.778;6.798;2023-02-23T03:53:49;49.40;;;31.80;;
9388;SDS011;4734;52.778;6.798;2023-02-23T03:56:54;47.50;;;32.17;;
9388;SDS011;4734;52.778;6.798;2023-02-23T04:00:01;42.13;;;28.63;;
9388;SDS011;4734;52.778;6.798;2023-02-23T04:03:06;53.72;;;33.08;;
9388;SDS011;4734;52.778;6.798;2023-02-23T04:06:11;47.13;;;31.70;;
9388;SDS011;4734;52.778;6.798;2023-02-23T04:09:16;41.07;;;29.50;;
9388;SDS011;4734;52.778;6.798;2023-02-23T04:12:20;49.60;;;31.65;;
9388;SDS011;4734;52.778;6.798;2023-02-23T04:15:26;45.13;;;30.33;;
9388;SDS011;4734;52.778;6.798;2023-02-23T04:18:14;48.75;;;32.47;;
9388;SDS011;4734;52.778;6.798;2023-02-23T04:21:00;53.88;;;33.72;;
9388;SDS011;4734;52.778;6.798;2023-02-23T04:23:46;48.03;;;32.40;;
9388;SDS011;4734;52.778;6.798;2023-02-23T04:26:32;50.20;;;32.08;;
9388;SDS011;4734;52.778;6.798;2023-02-23T04:29:18;47.03;;;32.47;;
9388;SDS011;4734;52.778;6.798;2023-02-23T04:32:05;50.22;;;32.60;;
9388;SDS011;4734;52.778;6.798;2023-02-23T04:34:51;49.83;;;32.05;;
9388;SDS011;4734;52.778;6.798;2023-02-23T04:37:36;52.33;;;33.33;;
9388;SDS011;4734;52.778;6.798;2023-02-23T04:40:22;49.80;;;33.20;;
9388;SDS011;4734;52.778;6.798;2023-02-23T04:43:08;48.83;;;31.50;;
9388;SDS011;4734;52.778;6.798;2023-02-23T04:45:55;50.93;;;33.70;;
9388;SDS011;4734;52.778;6.798;2023-02-23T04:48:42;47.70;;;32.50;;
9388;SDS011;4734;52.778;6.798;2023-02-23T04:51:28;50.47;;;32.23;;
9388;SDS011;4734;52.778;6.798;2023-02-23T04:54:16;50.23;;;33.83;;
9388;SDS011;4734;52.778;6.798;2023-02-23T04:57:02;48.23;;;32.00;;
9388;SDS011;4734;52.778;6.798;2023-02-23T04:59:48;48.70;;;32.27;;
9388;SDS011;4734;52.778;6.798;2023-02-23T05:02:34;50.23;;;32.87;;
9388;SDS011;4734;52.778;6.798;2023-02-23T05:05:20;49.20;;;33.53;;
9388;SDS011;4734;52.778;6.798;2023-02-23T05:08:06;44.80;;;30.30;;
9388;SDS011;4734;52.778;6.798;2023-02-23T05:10:52;42.87;;;29.73;;
9388;SDS011;4734;52.778;6.798;2023-02-23T05:13:38;50.97;;;32.80;;
9388;SDS011;4734;52.778;6.798;2023-02-23T05:16:24;50.37;;;32.83;;
9388;SDS011;4734;52.778;6.798;2023-02-23T05:19:10;48.93;;;32.93;;
9388;SDS011;4734;52.778;6.798;2023-02-23T05:21:57;48.47;;;32.57;;
9388;SDS011;4734;52.778;6.798;2023-02-23T05:24:43;48.00;;;30.97;;
9388;SDS011;4734;52.778;6.798;2023-02-23T05:27:30;46.30;;;29.87;;
9388;SDS011;4734;52.778;6.798;2023-02-23T05:30:16;49.60;;;32.77;;
9388;SDS011;4734;52.778;6.798;2023-02-23T05:33:02;41.83;;;29.47;;
9388;SDS011;4734;52.778;6.798;2023-02-23T05:35:48;45.23;;;30.97;;
9388;SDS011;4734;52.778;6.798;2023-02-23T05:38:35;46.67;;;32.10;;
9388;SDS011;4734;52.778;6.798;2023-02-23T05:41:21;51.10;;;30.93;;
9388;SDS011;4734;52.778;6.798;2023-02-23T05:44:07;47.33;;;30.57;;
9388;SDS011;4734;52.778;6.798;2023-02-23T05:46:53;47.10;;;31.03;;
9388;SDS011;4734;52.778;6.798;2023-02-23T05:49:38;49.00;;;32.03;;
9388;SDS011;4734;52.778;6.798;2023-02-23T05:52:24;47.03;;;29.70;;
9388;SDS011;4734;52.778;6.798;2023-02-23T05:55:11;44.07;;;28.73;;
9388;SDS011;4734;52.778;6.798;2023-02-23T05:57:57;43.63;;;28.47;;
9388;SDS011;4734;52.778;6.798;2023-02-23T06:00:43;46.67;;;29.87;;
9388;SDS011;4734;52.778;6.798;2023-02-23T06:03:29;48.00;;;30.25;;
9388;SDS011;4734;52.778;6.798;2023-02-23T06:06:14;42.10;;;27.93;;
9388;SDS011;4734;52.778;6.798;2023-02-23T06:09:00;42.77;;;27.13;;
9388;SDS011;4734;52.778;6.798;2023-02-23T06:11:48;40.97;;;27.00;;
9388;SDS011;4734;52.778;6.798;2023-02-23T06:14:34;39.87;;;26.60;;
9388;SDS011;4734;52.778;6.798;2023-02-23T06:17:20;42.00;;;25.70;;
9388;SDS011;4734;52.778;6.798;2023-02-23T06:20:06;38.57;;;25.27;;
9388;SDS011;4734;52.778;6.798;2023-02-23T06:22:51;39.63;;;25.63;;
9388;SDS011;4734;52.778;6.798;2023-02-23T06:25:37;44.75;;;26.23;;
9388;SDS011;4734;52.778;6.798;2023-02-23T06:28:25;34.47;;;24.52;;
9388;SDS011;4734;52.778;6.798;2023-02-23T06:31:10;39.17;;;25.03;;
9388;SDS011;4734;52.778;6.798;2023-02-23T06:33:56;35.27;;;23.67;;
9388;SDS011;4734;52.778;6.798;2023-02-23T06:36:42;38.30;;;23.43;;
9388;SDS011;4734;52.778;6.798;2023-02-23T06:39:27;36.33;;;21.97;;
9388;SDS011;4734;52.778;6.798;2023-02-23T06:42:13;32.80;;;21.30;;
9388;SDS011;4734;52.778;6.798;2023-02-23T06:45:00;28.07;;;19.17;;
9388;SDS011;4734;52.778;6.798;2023-02-23T06:47:46;28.77;;;19.20;;
9388;SDS011;4734;52.778;6.798;2023-02-23T06:50:32;31.07;;;19.60;;
9388;SDS011;4734;52.778;6.798;2023-02-23T06:53:18;26.93;;;18.53;;
9388;SDS011;4734;52.778;6.798;2023-02-23T06:56:05;27.73;;;17.77;;
9388;SDS011;4734;52.778;6.798;2023-02-23T06:58:50;28.90;;;18.23;;
9388;SDS011;4734;52.778;6.798;2023-02-23T07:01:37;29.53;;;20.33;;
9388;SDS011;4734;52.778;6.798;2023-02-23T07:04:24;27.90;;;19.43;;
9388;SDS011;4734;52.778;6.798;2023-02-23T07:07:10;30.83;;;19.63;;
9388;SDS011;4734;52.778;6.798;2023-02-23T07:09:56;29.80;;;19.20;;
9388;SDS011;4734;52.778;6.798;2023-02-23T07:12:42;29.20;;;20.23;;
9388;SDS011;4734;52.778;6.798;2023-02-23T07:15:28;27.43;;;18.60;;
9388;SDS011;4734;52.778;6.798;2023-02-23T07:18:15;28.43;;;19.87;;
9388;SDS011;4734;52.778;6.798;2023-02-23T07:21:01;26.30;;;18.03;;
9388;SDS011;4734;52.778;6.798;2023-02-23T07:23:47;29.27;;;19.97;;
9388;SDS011;4734;52.778;6.798;2023-02-23T07:26:33;31.63;;;18.80;;
9388;SDS011;4734;52.778;6.798;2023-02-23T07:29:19;28.57;;;19.90;;
9388;SDS011;4734;52.778;6.798;2023-02-23T07:32:06;28.03;;;19.70;;
9388;SDS011;4734;52.778;6.798;2023-02-23T07:34:53;28.83;;;19.93;;
9388;SDS011;4734;52.778;6.798;2023-02-23T07:37:39;27.95;;;20.05;;
9388;SDS011;4734;52.778;6.798;2023-02-23T07:40:25;28.17;;;19.90;;
9388;SDS011;4734;52.778;6.798;2023-02-23T07:43:11;29.30;;;21.27;;
9388;SDS011;4734;52.778;6.798;2023-02-23T07:45:58;29.35;;;19.48;;
9388;SDS011;4734;52.778;6.798;2023-02-23T07:48:44;30.83;;;21.52;;
9388;SDS011;4734;52.778;6.798;2023-02-23T07:51:31;28.98;;;19.52;;
9388;SDS011;4734;52.778;6.798;2023-02-23T07:54:17;29.88;;;19.70;;
9388;SDS011;4734;52.778;6.798;2023-02-23T07:57:04;28.47;;;19.73;;
9388;SDS011;4734;52.778;6.798;2023-02-23T07:59:50;27.43;;;19.37;;
9388;SDS011;4734;52.778;6.798;2023-02-23T08:02:36;26.35;;;18.27;;
9388;SDS011;4734;52.778;6.798;2023-02-23T08:05:21;30.42;;;19.08;;
9388;SDS011;4734;52.778;6.798;2023-02-23T08:08:09;27.97;;;18.97;;
9388;SDS011;4734;52.778;6.798;2023-02-23T08:10:58;24.33;;;17.30;;
9388;SDS011;4734;52.778;6.798;2023-02-23T08:13:44;25.50;;;17.70;;
9388;SDS011;4734;52.778;6.798;2023-02-23T08:16:30;25.53;;;17.60;;
9388;SDS011;4734;52.778;6.798;2023-02-23T08:19:16;26.90;;;18.40;;
9388;SDS011;4734;52.778;6.798;2023-02-23T08:22:05;25.67;;;17.40;;
9388;SDS011;4734;52.778;6.798;2023-02-23T08:24:53;23.07;;;16.47;;
9388;SDS011;4734;52.778;6.798;2023-02-23T08:27:39;24.73;;;17.27;;
9388;SDS011;4734;52.778;6.798;2023-02-23T08:30:25;25.30;;;17.63;;
9388;SDS011;4734;52.778;6.798;2023-02-23T08:33:11;25.77;;;17.70;;
9388;SDS011;4734;52.778;6.798;2023-02-23T08:35:57;26.33;;;17.00;;
9388;SDS011;4734;52.778;6.798;2023-02-23T08:38:45;24.73;;;16.90;;
9388;SDS011;4734;52.778;6.798;2023-02-23T08:41:33;24.00;;;16.25;;
9388;SDS011;4734;52.778;6.798;2023-02-23T08:44:18;25.73;;;17.50;;
9388;SDS011;4734;52.778;6.798;2023-02-23T08:47:04;25.37;;;17.23;;
9388;SDS011;4734;52.778;6.798;2023-02-23T08:49:50;26.67;;;16.80;;
9388;SDS011;4734;52.778;6.798;2023-02-23T08:52:36;26.40;;;17.57;;
9388;SDS011;4734;52.778;6.798;2023-02-23T08:55:24;25.53;;;17.10;;
9388;SDS011;4734;52.778;6.798;2023-02-23T08:58:11;23.47;;;16.67;;
9388;SDS011;4734;52.778;6.798;2023-02-23T09:00:57;25.53;;;16.77;;
9388;SDS011;4734;52.778;6.798;2023-02-23T09:03:43;25.27;;;17.23;;
9388;SDS011;4734;52.778;6.798;2023-02-23T09:06:29;23.70;;;17.27;;
9388;SDS011;4734;52.778;6.798;2023-02-23T09:09:15;25.23;;;16.97;;
9388;SDS011;4734;52.778;6.798;2023-02-23T09:12:02;22.63;;;16.13;;
9388;SDS011;4734;52.778;6.798;2023-02-23T09:14:49;26.23;;;17.97;;
9388;SDS011;4734;52.778;6.798;2023-02-23T09:17:36;26.80;;;17.03;;
9388;SDS011;4734;52.778;6.798;2023-02-23T09:20:22;23.35;;;16.85;;
9388;SDS011;4734;52.778;6.798;2023-02-23T09:23:09;24.13;;;16.90;;
9388;SDS011;4734;52.778;6.798;2023-02-23T09:25:55;24.27;;;17.40;;
9388;SDS011;4734;52.778;6.798;2023-02-23T09:28:41;20.87;;;16.27;;
9388;SDS011;4734;52.778;6.798;2023-02-23T09:31:28;24.93;;;16.83;;
9388;SDS011;4734;52.778;6.798;2023-02-23T09:34:14;27.73;;;17.97;;
9388;SDS011;4734;52.778;6.798;2023-02-23T09:37:00;26.13;;;17.53;;
9388;SDS011;4734;52.778;6.798;2023-02-23T09:39:46;25.23;;;17.98;;
9388;SDS011;4734;52.778;6.798;2023-02-23T09:45:48;27.93;;;17.60;;
9388;SDS011;4734;52.778;6.798;2023-02-23T09:48:37;26.63;;;17.93;;
9388;SDS011;4734;52.778;6.798;2023-02-23T09:51:24;27.97;;;18.83;;
9388;SDS011;4734;52.778;6.798;2023-02-23T09:54:10;25.13;;;17.17;;
9388;SDS011;4734;52.778;6.798;2023-02-23T09:56:57;32.00;;;19.13;;
9388;SDS011;4734;52.778;6.798;2023-02-23T09:59:46;28.53;;;19.23;;
9388;SDS011;4734;52.778;6.798;2023-02-23T10:02:32;29.73;;;18.30;;
9388;SDS011;4734;52.778;6.798;2023-02-23T10:05:23;26.40;;;18.40;;
9388;SDS011;4734;52.778;6.798;2023-02-23T10:08:17;29.03;;;18.83;;
9388;SDS011;4734;52.778;6.798;2023-02-23T10:11:05;29.27;;;19.67;;
9388;SDS011;4734;52.778;6.798;2023-02-23T10:13:57;31.67;;;18.90;;
9388;SDS011;4734;52.778;6.798;2023-02-23T10:16:50;28.83;;;18.27;;
9388;SDS011;4734;52.778;6.798;2023-02-23T10:19:40;26.97;;;18.57;;
9388;SDS011;4734;52.778;6.798;2023-02-23T10:22:32;30.40;;;19.27;;
9388;SDS011;4734;52.778;6.798;2023-02-23T10:25:20;27.20;;;17.30;;
9388;SDS011;4734;52.778;6.798;2023-02-23T10:28:07;27.90;;;17.50;;
9388;SDS011;4734;52.778;6.798;2023-02-23T10:30:55;30.10;;;18.03;;
9388;SDS011;4734;52.778;6.798;2023-02-23T10:33:41;28.23;;;17.30;;
9388;SDS011;4734;52.778;6.798;2023-02-23T10:36:30;27.93;;;19.10;;
9388;SDS011;4734;52.778;6.798;2023-02-23T10:39:20;25.53;;;17.87;;
9388;SDS011;4734;52.778;6.798;2023-02-23T10:42:13;27.50;;;18.05;;
9388;SDS011;4734;52.778;6.798;2023-02-23T10:45:01;22.92;;;16.63;;
9388;SDS011;4734;52.778;6.798;2023-02-23T10:47:47;27.67;;;18.07;;
9388;SDS011;4734;52.778;6.798;2023-02-23T10:50:35;27.42;;;17.52;;
9388;SDS011;4734;52.778;6.798;2023-02-23T10:53:22;27.60;;;17.00;;
9388;SDS011;4734;52.778;6.798;2023-02-23T10:56:11;26.70;;;17.83;;
9388;SDS011;4734;52.778;6.798;2023-02-23T10:58:57;22.27;;;16.27;;
9388;SDS011;4734;52.778;6.798;2023-02-23T11:01:43;26.25;;;16.75;;
9388;SDS011;4734;52.778;6.798;2023-02-23T11:04:29;24.70;;;16.45;;
9388;SDS011;4734;52.778;6.798;2023-02-23T11:07:17;27.85;;;16.30;;
9388;SDS011;4734;52.778;6.798;2023-02-23T11:10:22;24.67;;;16.80;;
9388;SDS011;4734;52.778;6.798;2023-02-23T11:13:21;24.55;;;16.65;;
9388;SDS011;4734;52.778;6.798;2023-02-23T11:16:09;25.05;;;15.80;;
9388;SDS011;4734;52.778;6.798;2023-02-23T11:18:56;23.63;;;16.20;;
9388;SDS011;4734;52.778;6.798;2023-02-23T11:21:47;24.70;;;15.52;;
9388;SDS011;4734;52.778;6.798;2023-02-23T11:24:34;21.45;;;14.80;;
9388;SDS011;4734;52.778;6.798;2023-02-23T11:27:21;24.10;;;15.63;;
9388;SDS011;4734;52.778;6.798;2023-02-23T11:30:11;23.00;;;15.55;;
9388;SDS011;4734;52.778;6.798;2023-02-23T11:32:58;24.00;;;17.52;;
9388;SDS011;4734;52.778;6.798;2023-02-23T11:35:55;22.17;;;14.05;;
9388;SDS011;4734;52.778;6.798;2023-02-23T11:38:43;22.88;;;14.18;;
9388;SDS011;4734;52.778;6.798;2023-02-23T11:41:30;27.40;;;15.90;;
9388;SDS011;4734;52.778;6.798;2023-02-23T11:44:18;19.38;;;15.13;;
9388;SDS011;4734;52.778;6.798;2023-02-23T11:47:10;21.95;;;15.20;;
9388;SDS011;4734;52.778;6.798;2023-02-23T11:49:58;24.30;;;15.70;;
9388;SDS011;4734;52.778;6.798;2023-02-23T11:52:44;24.30;;;14.73;;
9388;SDS011;4734;52.778;6.798;2023-02-23T11:55:30;22.65;;;14.57;;
9388;SDS011;4734;52.778;6.798;2023-02-23T11:58:19;21.15;;;15.45;;
9388;SDS011;4734;52.778;6.798;2023-02-23T12:01:06;29.52;;;17.65;;
9388;SDS011;4734;52.778;6.798;2023-02-23T12:03:56;26.33;;;15.60;;
9388;SDS011;4734;52.778;6.798;2023-02-23T12:06:42;28.73;;;16.08;;
9388;SDS011;4734;52.778;6.798;2023-02-23T12:09:28;27.85;;;16.33;;
9388;SDS011;4734;52.778;6.798;2023-02-23T12:12:16;31.42;;;17.15;;
9388;SDS011;4734;52.778;6.798;2023-02-23T12:15:03;31.60;;;17.70;;
9388;SDS011;4734;52.778;6.798;2023-02-23T12:17:53;29.05;;;16.73;;
9388;SDS011;4734;52.778;6.798;2023-02-23T12:20:42;33.72;;;18.92;;
9388;SDS011;4734;52.778;6.798;2023-02-23T12:23:31;32.63;;;18.50;;
9388;SDS011;4734;52.778;6.798;2023-02-23T12:26:19;31.42;;;18.77;;
9388;SDS011;4734;52.778;6.798;2023-02-23T12:29:09;32.45;;;18.88;;
9388;SDS011;4734;52.778;6.798;2023-02-23T12:32:01;32.95;;;19.35;;
9388;SDS011;4734;52.778;6.798;2023-02-23T12:34:51;32.17;;;19.27;;
9388;SDS011;4734;52.778;6.798;2023-02-23T12:37:41;35.30;;;19.77;;
9388;SDS011;4734;52.778;6.798;2023-02-23T12:40:28;34.60;;;19.63;;
9388;SDS011;4734;52.778;6.798;2023-02-23T12:43:16;38.72;;;20.10;;
9388;SDS011;4734;52.778;6.798;2023-02-23T12:46:05;33.85;;;19.67;;
9388;SDS011;4734;52.778;6.798;2023-02-23T12:48:55;33.90;;;19.05;;
9388;SDS011;4734;52.778;6.798;2023-02-23T12:51:44;31.73;;;18.65;;
9388;SDS011;4734;52.778;6.798;2023-02-23T12:54:39;32.08;;;19.15;;
9388;SDS011;4734;52.778;6.798;2023-02-23T12:57:27;35.85;;;20.25;;
9388;SDS011;4734;52.778;6.798;2023-02-23T13:06:18;40.60;;;21.55;;
9388;SDS011;4734;52.778;6.798;2023-02-23T13:09:08;39.88;;;20.17;;
9388;SDS011;4734;52.778;6.798;2023-02-23T13:12:00;38.55;;;20.05;;
9388;SDS011;4734;52.778;6.798;2023-02-23T13:14:50;41.58;;;21.27;;
9388;SDS011;4734;52.778;6.798;2023-02-23T13:17:39;38.88;;;20.73;;
9388;SDS011;4734;52.778;6.798;2023-02-23T13:20:29;37.53;;;20.50;;
9388;SDS011;4734;52.778;6.798;2023-02-23T13:23:20;35.08;;;19.30;;
9388;SDS011;4734;52.778;6.798;2023-02-23T13:26:12;38.47;;;19.25;;
9388;SDS011;4734;52.778;6.798;2023-02-23T13:29:01;42.35;;;19.48;;
9388;SDS011;4734;52.778;6.798;2023-02-23T13:31:47;36.40;;;19.10;;
9388;SDS011;4734;52.778;6.798;2023-02-23T13:34:34;37.88;;;19.38;;
9388;SDS011;4734;52.778;6.798;2023-02-23T13:37:22;34.97;;;18.23;;
9388;SDS011;4734;52.778;6.798;2023-02-23T13:40:14;35.78;;;18.63;;
9388;SDS011;4734;52.778;6.798;2023-02-23T13:43:04;34.30;;;17.67;;
9388;SDS011;4734;52.778;6.798;2023-02-23T13:46:08;33.67;;;18.17;;
9388;SDS011;4734;52.778;6.798;2023-02-23T13:48:59;36.85;;;18.63;;
9388;SDS011;4734;52.778;6.798;2023-02-23T13:51:47;34.03;;;17.30;;
9388;SDS011;4734;52.778;6.798;2023-02-23T13:54:37;37.67;;;18.02;;
9388;SDS011;4734;52.778;6.798;2023-02-23T13:57:25;36.00;;;18.25;;
9388;SDS011;4734;52.778;6.798;2023-02-23T14:03:02;35.95;;;16.48;;
9388;SDS011;4734;52.778;6.798;2023-02-23T14:05:50;35.83;;;16.33;;
9388;SDS011;4734;52.778;6.798;2023-02-23T14:08:39;29.30;;;15.25;;
9388;SDS011;4734;52.778;6.798;2023-02-23T14:11:27;31.60;;;15.85;;
9388;SDS011;4734;52.778;6.798;2023-02-23T14:14:14;38.25;;;16.13;;
9388;SDS011;4734;52.778;6.798;2023-02-23T14:17:10;36.83;;;16.38;;
9388;SDS011;4734;52.778;6.798;2023-02-23T14:20:11;35.58;;;15.50;;
9388;SDS011;4734;52.778;6.798;2023-02-23T14:23:15;37.25;;;16.40;;
9388;SDS011;4734;52.778;6.798;2023-02-23T14:26:15;41.25;;;17.23;;
9388;SDS011;4734;52.778;6.798;2023-02-23T14:32:26;37.30;;;17.55;;
9388;SDS011;4734;52.778;6.798;2023-02-23T14:41:21;40.15;;;17.98;;
9388;SDS011;4734;52.778;6.798;2023-02-23T14:44:10;43.83;;;18.98;;
9388;SDS011;4734;52.778;6.798;2023-02-23T14:46:59;40.35;;;17.73;;
9388;SDS011;4734;52.778;6.798;2023-02-23T14:49:47;38.92;;;17.42;;
9388;SDS011;4734;52.778;6.798;2023-02-23T14:52:34;41.53;;;18.27;;
9388;SDS011;4734;52.778;6.798;2023-02-23T14:55:21;47.15;;;18.63;;
9388;SDS011;4734;52.778;6.798;2023-02-23T14:58:18;39.10;;;17.15;;
9388;SDS011;4734;52.778;6.798;2023-02-23T15:01:06;35.30;;;15.68;;
9388;SDS011;4734;52.778;6.798;2023-02-23T15:04:03;37.15;;;15.95;;
9388;SDS011;4734;52.778;6.798;2023-02-23T15:06:50;27.50;;;11.52;;
9388;SDS011;4734;52.778;6.798;2023-02-23T15:09:38;21.88;;;8.75;;
9388;SDS011;4734;52.778;6.798;2023-02-23T15:12:26;16.42;;;5.72;;
9388;SDS011;4734;52.778;6.798;2023-02-23T15:15:15;17.77;;;6.05;;
9388;SDS011;4734;52.778;6.798;2023-02-23T15:18:01;16.92;;;4.38;;
9388;SDS011;4734;52.778;6.798;2023-02-23T15:20:48;14.13;;;4.90;;
9388;SDS011;4734;52.778;6.798;2023-02-23T15:23:35;18.98;;;4.40;;
9388;SDS011;4734;52.778;6.798;2023-02-23T15:26:24;13.38;;;3.95;;
9388;SDS011;4734;52.778;6.798;2023-02-23T15:29:14;12.93;;;4.50;;
9388;SDS011;4734;52.778;6.798;2023-02-23T15:32:12;17.13;;;4.25;;
9388;SDS011;4734;52.778;6.798;2023-02-23T15:34:59;14.32;;;5.07;;
9388;SDS011;4734;52.778;6.798;2023-02-23T15:37:47;14.27;;;3.80;;
9388;SDS011;4734;52.778;6.798;2023-02-23T15:40:34;15.52;;;4.60;;
9388;SDS011;4734;52.778;6.798;2023-02-23T15:43:20;16.10;;;4.55;;
9388;SDS011;4734;52.778;6.798;2023-02-23T15:46:06;13.18;;;4.20;;
9388;SDS011;4734;52.778;6.798;2023-02-23T15:48:54;14.50;;;4.35;;
9388;SDS011;4734;52.778;6.798;2023-02-23T15:51:43;16.27;;;4.32;;
9388;SDS011;4734;52.778;6.798;2023-02-23T15:54:31;12.88;;;3.70;;
9388;SDS011;4734;52.778;6.798;2023-02-23T15:57:19;16.58;;;4.47;;
9388;SDS011;4734;52.778;6.798;2023-02-23T16:00:11;15.07;;;3.88;;
9388;SDS011;4734;52.778;6.798;2023-02-23T16:03:03;12.30;;;4.30;;
9388;SDS011;4734;52.778;6.798;2023-02-23T16:05:55;14.90;;;4.10;;
9388;SDS011;4734;52.778;6.798;2023-02-23T16:08:54;21.38;;;4.53;;
9388;SDS011;4734;52.778;6.798;2023-02-23T16:11:40;18.00;;;4.05;;
9388;SDS011;4734;52.778;6.798;2023-02-23T16:14:27;17.75;;;4.57;;
9388;SDS011;4734;52.778;6.798;2023-02-23T16:17:18;14.82;;;4.05;;
9388;SDS011;4734;52.778;6.798;2023-02-23T16:20:11;16.17;;;4.50;;
9388;SDS011;4734;52.778;6.798;2023-02-23T16:23:00;17.05;;;4.93;;
9388;SDS011;4734;52.778;6.798;2023-02-23T16:25:46;21.13;;;4.80;;
9388;SDS011;4734;52.778;6.798;2023-02-23T16:28:39;14.52;;;4.93;;
9388;SDS011;4734;52.778;6.798;2023-02-23T16:31:38;18.40;;;4.57;;
9388;SDS011;4734;52.778;6.798;2023-02-23T16:34:26;17.42;;;4.70;;
9388;SDS011;4734;52.778;6.798;2023-02-23T16:37:13;17.30;;;4.80;;
9388;SDS011;4734;52.778;6.798;2023-02-23T16:40:02;14.93;;;4.20;;
9388;SDS011;4734;52.778;6.798;2023-02-23T16:42:48;18.15;;;4.30;;
9388;SDS011;4734;52.778;6.798;2023-02-23T16:45:39;16.77;;;4.25;;
9388;SDS011;4734;52.778;6.798;2023-02-23T16:48:25;14.68;;;3.97;;
9388;SDS011;4734;52.778;6.798;2023-02-23T16:51:12;17.90;;;4.55;;
9388;SDS011;4734;52.778;6.798;2023-02-23T16:53:58;19.27;;;4.82;;
9388;SDS011;4734;52.778;6.798;2023-02-23T16:56:48;17.48;;;4.10;;
9388;SDS011;4734;52.778;6.798;2023-02-23T16:59:37;17.05;;;4.30;;
9388;SDS011;4734;52.778;6.798;2023-02-23T17:02:23;18.67;;;4.35;;
9388;SDS011;4734;52.778;6.798;2023-02-23T17:05:09;19.35;;;5.05;;
9388;SDS011;4734;52.778;6.798;2023-02-23T17:07:56;18.60;;;4.10;;
9388;SDS011;4734;52.778;6.798;2023-02-23T17:10:42;17.52;;;4.43;;
9388;SDS011;4734;52.778;6.798;2023-02-23T17:13:30;14.73;;;4.50;;
9388;SDS011;4734;52.778;6.798;2023-02-23T17:16:16;18.20;;;4.47;;
9388;SDS011;4734;52.778;6.798;2023-02-23T17:19:02;16.83;;;4.20;;
9388;SDS011;4734;52.778;6.798;2023-02-23T17:21:49;15.70;;;3.73;;
9388;SDS011;4734;52.778;6.798;2023-02-23T17:24:37;15.53;;;4.20;;
9388;SDS011;4734;52.778;6.798;2023-02-23T17:27:23;19.33;;;4.13;;